Time;durP1;ratioP1;P1;durP2;ratioP2;P2;SDS_P1;SDS_P2;PMS_P1;PMS_P2;Temp;Humidity;BMP_temperature;BMP_pressure;BME280_temperature;BME280_humidity;BME280_pressure;Samples;Min_cycle;Max_cycle;Signal;HPM_P1;HPM_P2
2021/10/21 00:01:28;;;;;;;10.07;7.10;;;;;;;;;;6267507;28;20128;-83
2021/10/21 00:04:29;;;;;;;8.00;6.90;;;16.00;99.90;;;;;;6267343;28;20056;-84
2021/10/21 00:07:30;;;;;;;11.23;8.20;;;;;;;;;;6267476;28;20108;-82
2021/10/21 00:10:31;;;;;;;9.48;8.23;;;;;;;;;;6267060;28;20056;-82
2021/10/21 00:13:32;;;;;;;10.27;8.50;;;15.90;99.90;;;;;;6266954;28;20082;-84
2021/10/21 00:16:32;;;;;;;10.65;8.05;;;15.90;99.90;;;;;;6234162;28;20029;-82
2021/10/21 00:19:33;;;;;;;8.90;7.70;;;15.60;99.90;;;;;;6250645;28;20051;-82
2021/10/21 00:22:33;;;;;;;8.25;6.32;;;15.60;99.90;;;;;;6250710;28;20063;-82
2021/10/21 00:25:34;;;;;;;7.95;5.72;;;15.70;99.90;;;;;;6250482;28;20049;-82
2021/10/21 00:28:35;;;;;;;7.40;6.22;;;15.60;99.90;;;;;;6250237;28;20047;-84
2021/10/21 00:31:36;;;;;;;7.43;6.47;;;15.60;99.90;;;;;;6250720;28;20029;-83
2021/10/21 00:34:37;;;;;;;7.70;5.70;;;;;;;;;;6234059;28;20508;-83
2021/10/21 00:37:37;;;;;;;6.40;5.75;;;15.70;99.90;;;;;;6267184;28;20025;-83
2021/10/21 00:40:38;;;;;;;6.35;5.03;;;15.50;99.90;;;;;;6250076;28;20383;-82
2021/10/21 00:43:39;;;;;;;6.18;5.03;;;15.50;99.90;;;;;;6250102;28;20372;-83
2021/10/21 00:46:40;;;;;;;4.93;4.43;;;15.50;99.90;;;;;;6248796;28;20067;-83
2021/10/21 00:49:41;;;;;;;4.35;3.70;;;15.40;99.90;;;;;;6249761;28;20029;-83
2021/10/21 00:52:41;;;;;;;6.25;4.55;;;15.30;99.90;;;;;;6250119;28;20032;-82
2021/10/21 00:55:42;;;;;;;4.97;4.20;;;;;;;;;;6266307;28;20033;-83
2021/10/21 00:58:44;;;;;;;4.78;4.15;;;15.50;99.90;;;;;;6264497;28;20032;-83
2021/10/21 01:01:44;;;;;;;5.10;4.27;;;15.60;99.90;;;;;;6253885;28;20158;-83
2021/10/21 01:04:46;;;;;;;4.95;3.90;;;15.50;99.90;;;;;;6271049;28;20411;-84
2021/10/21 01:07:46;;;;;;;5.03;4.18;;;15.50;99.90;;;;;;6255015;28;20055;-82
2021/10/21 01:10:47;;;;;;;5.05;4.30;;;15.70;99.90;;;;;;6238303;28;20036;-83
2021/10/21 01:13:48;;;;;;;5.35;4.22;;;;;;;;;;6238177;28;20558;-82
2021/10/21 01:16:49;;;;;;;5.05;4.20;;;15.80;99.90;;;;;;6271339;28;20115;-82
2021/10/21 01:19:50;;;;;;;6.45;4.57;;;15.80;99.90;;;;;;6254666;28;20086;-82
2021/10/21 01:22:50;;;;;;;5.15;4.28;;;15.80;99.90;;;;;;6254563;28;20037;-83
2021/10/21 01:25:51;;;;;;;5.43;4.75;;;15.70;99.90;;;;;;6238107;28;20056;-83
2021/10/21 01:28:52;;;;;;;5.90;4.63;;;15.70;99.90;;;;;;6254325;28;20036;-83
2021/10/21 01:31:54;;;;;;;5.97;4.63;;;15.40;99.90;;;;;;6254620;28;20489;-84
2021/10/21 01:34:54;;;;;;;4.90;4.20;;;15.40;99.90;;;;;;6271106;28;20045;-84
2021/10/21 01:37:55;;;;;;;5.32;3.38;;;15.50;99.90;;;;;;6271007;28;20033;-82
2021/10/21 01:40:56;;;;;;;4.63;4.18;;;;;;;;;;6270826;28;20029;-84
2021/10/21 01:43:57;;;;;;;4.15;3.53;;;;;;;;;;6272571;28;20071;-84
2021/10/21 01:46:57;;;;;;;4.18;3.78;;;15.00;99.90;;;;;;6254117;28;20045;-84
2021/10/21 01:49:58;;;;;;;4.45;4.03;;;;;;;;;;6253966;28;20064;-84
2021/10/21 01:52:59;;;;;;;4.72;4.20;;;15.20;99.90;;;;;;6270700;28;20025;-84
2021/10/21 01:56:00;;;;;;;4.35;3.72;;;;;;;;;;6253852;28;20039;-83
2021/10/21 01:59:01;;;;;;;4.35;3.53;;;;;;;;;;6253230;28;20021;-82
2021/10/21 02:02:02;;;;;;;4.70;3.17;;;;;;;;;;6253805;28;20067;-84
2021/10/21 02:05:03;;;;;;;4.03;3.25;;;16.10;99.90;;;;;;6269931;28;20486;-82
2021/10/21 02:08:04;;;;;;;5.15;3.20;;;16.70;99.90;;;;;;6253823;28;20489;-86
2021/10/21 02:11:05;;;;;;;3.10;2.60;;;;;;;;;;6253553;28;20060;-84
2021/10/21 02:14:05;;;;;;;2.83;2.30;;;16.00;99.90;;;;;;6269802;28;20032;-83
2021/10/21 02:17:07;;;;;;;2.67;2.47;;;16.40;99.90;;;;;;6253284;28;20425;-83
2021/10/21 02:20:08;;;;;;;2.45;2.25;;;16.40;99.90;;;;;;6253204;28;20040;-83
2021/10/21 02:23:08;;;;;;;3.28;2.50;;;16.30;99.90;;;;;;6269594;28;20033;-84
2021/10/21 02:26:09;;;;;;;4.15;2.60;;;16.20;99.90;;;;;;6269858;28;20041;-83
2021/10/21 02:29:10;;;;;;;2.50;2.30;;;;;;;;;;6253289;28;20459;-85
2021/10/21 02:32:11;;;;;;;8.07;2.40;;;16.30;99.90;;;;;;6253207;28;20021;-84
2021/10/21 02:35:11;;;;;;;2.92;2.08;;;16.30;99.90;;;;;;6253064;28;20105;-82
2021/10/21 02:38:12;;;;;;;3.25;2.47;;;16.30;99.90;;;;;;6269626;28;20036;-81
2021/10/21 02:41:13;;;;;;;3.15;2.38;;;16.10;99.90;;;;;;6236230;28;20048;-83
2021/10/21 02:44:13;;;;;;;3.20;2.00;;;16.30;99.90;;;;;;6235947;28;20118;-85
2021/10/21 02:47:14;;;;;;;2.53;2.30;;;15.60;99.90;;;;;;6250519;28;20107;-83
2021/10/21 02:50:15;;;;;;;2.75;2.30;;;15.50;99.90;;;;;;6268013;28;20447;-82
2021/10/21 02:53:16;;;;;;;3.70;2.03;;;;;;;;;;6252489;28;20028;-82
2021/10/21 02:56:17;;;;;;;3.00;1.65;;;;;;;;;;6270100;28;20029;-84
2021/10/21 02:59:17;;;;;;;2.00;1.80;;;14.90;99.90;;;;;;6269443;28;20040;-82
2021/10/21 03:02:18;;;;;;;1.60;1.50;;;14.80;99.90;;;;;;6252448;28;20037;-83
2021/10/21 03:05:19;;;;;;;1.60;1.50;;;;;;;;;;6268609;28;20045;-82
2021/10/21 03:08:20;;;;;;;2.65;1.67;;;;;;;;;;6269648;28;20571;-82
2021/10/21 03:11:21;;;;;;;4.72;1.58;;;;;;;;;;6269829;28;20406;-83
2021/10/21 03:14:21;;;;;;;3.80;2.00;;;14.60;99.90;;;;;;6269707;28;20059;-84
2021/10/21 03:17:22;;;;;;;2.70;1.65;;;;;;;;;;6268376;28;20462;-83
2021/10/21 03:20:23;;;;;;;3.72;1.88;;;;;;;;;;6268624;28;20364;-82
2021/10/21 03:23:27;;;;;;;3.42;1.58;;;14.40;99.90;;;;;;6268453;28;20032;-82
2021/10/21 03:26:28;;;;;;;4.22;1.75;;;14.50;99.90;;;;;;6252644;28;20455;-81
2021/10/21 03:29:29;;;;;;;2.20;1.77;;;;;;;;;;6267680;28;20040;-82
2021/10/21 03:32:30;;;;;;;2.58;1.77;;;;;;;;;;6269513;28;20060;-84
2021/10/21 03:35:30;;;;;;;2.38;1.67;;;14.20;99.90;;;;;;6267857;28;20067;-81
2021/10/21 03:38:31;;;;;;;4.47;2.25;;;14.30;99.90;;;;;;6268743;28;20036;-82
2021/10/21 03:41:31;;;;;;;3.58;1.92;;;14.40;99.90;;;;;;6251810;28;20021;-81
2021/10/21 03:44:32;;;;;;;4.05;1.90;;;14.20;99.90;;;;;;6250836;28;20036;-83
2021/10/21 03:47:33;;;;;;;3.95;1.70;;;;;;;;;;6268238;28;20036;-82
2021/10/21 03:50:33;;;;;;;6.20;2.13;;;14.20;99.90;;;;;;6267137;28;20036;-81
2021/10/21 03:53:34;;;;;;;5.93;2.38;;;14.10;99.90;;;;;;6267400;28;20104;-81
2021/10/21 03:56:34;;;;;;;6.60;2.25;;;14.00;99.90;;;;;;6268054;28;20041;-81
2021/10/21 03:59:35;;;;;;;4.97;2.28;;;14.00;99.90;;;;;;6251533;28;20021;-81
2021/10/21 04:02:37;;;;;;;6.72;2.92;;;13.90;99.90;;;;;;6250755;28;20032;-82
2021/10/21 04:05:38;;;;;;;5.88;2.28;;;13.80;99.90;;;;;;6251141;28;20049;-83
2021/10/21 04:08:39;;;;;;;16.58;2.30;;;13.60;99.90;;;;;;6250791;28;20033;-81
2021/10/21 04:11:39;;;;;;;5.68;2.38;;;13.60;99.90;;;;;;6267285;28;20067;-81
2021/10/21 04:14:41;;;;;;;9.60;2.40;;;;;;;;;;6267268;28;20072;-83
2021/10/21 04:17:41;;;;;;;5.53;2.10;;;13.60;99.90;;;;;;6268389;28;20047;-81
2021/10/21 04:20:42;;;;;;;5.82;2.20;;;;;;;;;;6267352;28;20033;-82
2021/10/21 04:23:43;;;;;;;11.48;2.88;;;13.60;99.90;;;;;;6268452;28;20390;-81
2021/10/21 04:26:44;;;;;;;6.07;3.15;;;13.50;99.90;;;;;;6268842;28;20033;-81
2021/10/21 04:29:44;;;;;;;7.78;2.55;;;13.60;99.90;;;;;;6233510;28;20036;-81
2021/10/21 04:32:45;;;;;;;9.55;3.08;;;13.60;99.90;;;;;;6266175;28;20387;-82
2021/10/21 04:35:46;;;;;;;7.07;2.95;;;13.60;99.90;;;;;;6267836;28;20079;-82
2021/10/21 04:38:46;;;;;;;7.63;2.90;;;12.80;99.90;;;;;;6233733;28;20032;-80
2021/10/21 04:41:47;;;;;;;13.48;2.85;;;13.40;99.90;;;;;;6266700;28;20107;-80
2021/10/21 04:44:48;;;;;;;10.35;3.10;;;;;;;;;;6249769;28;20053;-81
2021/10/21 04:47:56;;;;;;;5.20;2.30;;;13.70;99.90;;;;;;6290175;28;20454;-81
2021/10/21 04:50:56;;;;;;;13.93;3.30;;;13.70;99.90;;;;;;6289426;28;20478;-82
2021/10/21 04:53:57;;;;;;;12.00;2.80;;;13.30;99.90;;;;;;6274660;28;20090;-82
2021/10/21 04:56:58;;;;;;;14.07;3.17;;;13.30;99.90;;;;;;6274820;28;20021;-80
2021/10/21 04:59:58;;;;;;;8.52;2.72;;;13.30;99.90;;;;;;6274561;28;20033;-80
2021/10/21 05:03:06;;;;;;;12.27;3.08;;;13.20;99.90;;;;;;6258057;28;20028;-80
2021/10/21 05:06:07;;;;;;;12.45;2.90;;;13.40;99.90;;;;;;6258895;28;20410;-81
2021/10/21 05:09:07;;;;;;;12.98;3.55;;;13.10;99.90;;;;;;6291248;28;20028;-82
2021/10/21 05:12:08;;;;;;;5.90;2.90;;;;;;;;;;6273935;28;20044;-83
2021/10/21 05:15:09;;;;;;;7.82;2.88;;;13.10;99.90;;;;;;6291335;28;20033;-82
2021/10/21 05:18:09;;;;;;;11.45;2.70;;;13.10;99.90;;;;;;6257352;28;20028;-80
2021/10/21 05:21:10;;;;;;;12.25;3.22;;;;;;;;;;6292396;28;20032;-81
2021/10/21 05:24:11;;;;;;;12.05;3.00;;;13.30;99.90;;;;;;6290644;28;20040;-81
2021/10/21 05:27:12;;;;;;;11.32;3.00;;;13.30;99.90;;;;;;6290420;28;20126;-81
2021/10/21 05:30:13;;;;;;;15.07;3.42;;;13.50;99.90;;;;;;6274031;28;20048;-83
2021/10/21 05:33:14;;;;;;;12.63;3.42;;;;;;;;;;6272215;28;20035;-82
2021/10/21 05:36:14;;;;;;;8.75;3.30;;;13.20;99.90;;;;;;6289975;28;20365;-84
2021/10/21 05:39:15;;;;;;;10.60;4.20;;;13.00;99.90;;;;;;6274225;28;20028;-83
2021/10/21 05:42:16;;;;;;;10.02;3.00;;;;;;;;;;6256145;28;20111;-81
2021/10/21 05:45:17;;;;;;;8.73;2.90;;;;;;;;;;6288333;28;20580;-81
2021/10/21 05:48:18;;;;;;;12.63;3.03;;;;;;;;;;6292321;28;20028;-82
2021/10/21 05:51:19;;;;;;;11.15;2.92;;;13.00;99.90;;;;;;6294585;28;20028;-81
2021/10/21 05:54:20;;;;;;;16.48;3.25;;;13.20;99.90;;;;;;6276919;28;20413;-81
2021/10/21 05:57:21;;;;;;;13.98;3.40;;;13.10;99.90;;;;;;6294146;28;20028;-82
2021/10/21 06:00:22;;;;;;;10.10;2.85;;;;;;;;;;6295291;28;20025;-81
2021/10/21 06:03:25;;;;;;;9.18;3.55;;;;;;;;;;6294908;28;20017;-81
2021/10/21 06:06:26;;;;;;;7.05;2.83;;;12.90;99.90;;;;;;6295047;28;20044;-81
2021/10/21 06:09:27;;;;;;;12.27;2.97;;;12.90;99.90;;;;;;6294819;28;20454;-81
2021/10/21 06:12:27;;;;;;;18.17;3.00;;;12.80;99.90;;;;;;6295042;28;20039;-81
2021/10/21 06:15:28;;;;;;;10.40;3.53;;;;;;;;;;6294752;28;20085;-81
2021/10/21 06:18:29;;;;;;;7.47;2.75;;;12.90;99.90;;;;;;6294982;28;20055;-81
2021/10/21 06:21:29;;;;;;;11.63;3.17;;;12.90;99.90;;;;;;6296058;28;20028;-81
2021/10/21 06:24:30;;;;;;;8.23;3.20;;;12.90;99.90;;;;;;6294729;28;20040;-81
2021/10/21 06:27:31;;;;;;;13.48;2.97;;;;;;;;;;6278031;28;20111;-80
2021/10/21 06:30:31;;;;;;;14.05;3.17;;;13.10;99.90;;;;;;6295502;28;20032;-81
2021/10/21 06:33:32;;;;;;;9.25;3.35;;;12.90;99.90;;;;;;6294394;28;20077;-81
2021/10/21 06:36:34;;;;;;;8.95;3.28;;;13.10;99.90;;;;;;6277410;28;20035;-81
2021/10/21 06:39:34;;;;;;;8.63;2.97;;;13.20;99.90;;;;;;6261126;28;20032;-82
2021/10/21 06:42:35;;;;;;;12.80;3.15;;;13.10;99.90;;;;;;6295829;28;20040;-81
2021/10/21 06:45:35;;;;;;;12.10;2.83;;;13.10;99.90;;;;;;6277090;28;20080;-81
2021/10/21 06:48:36;;;;;;;11.93;3.05;;;13.00;99.90;;;;;;6294123;28;20028;-82
2021/10/21 06:51:37;;;;;;;16.02;3.20;;;;;;;;;;6293841;28;20033;-81
2021/10/21 06:54:37;;;;;;;12.32;2.60;;;13.10;99.90;;;;;;6293833;28;20039;-80
2021/10/21 06:57:51;;;;;;;7.07;2.75;;;13.30;99.90;;;;;;6276708;28;20021;-82
2021/10/21 07:00:53;;;;;;;15.23;3.30;;;13.00;99.90;;;;;;6261211;28;20067;-80
2021/10/21 07:03:53;;;;;;;13.80;3.22;;;13.20;99.90;;;;;;6293497;28;20040;-81
2021/10/21 07:06:54;;;;;;;8.05;2.85;;;13.10;99.90;;;;;;6294823;28;20070;-81
2021/10/21 07:09:55;;;;;;;10.57;3.35;;;;;;;;;;6293456;28;20470;-81
2021/10/21 07:12:55;;;;;;;10.15;2.60;;;13.00;99.90;;;;;;6293707;28;20093;-80
2021/10/21 07:15:56;;;;;;;12.63;2.83;;;;;;;;;;6293611;28;20029;-80
2021/10/21 07:18:57;;;;;;;8.15;2.40;;;;;;;;;;6294841;28;20028;-81
2021/10/21 07:21:58;;;;;;;8.80;3.97;;;;;;;;;;6294753;28;20028;-81
2021/10/21 07:24:59;;;;;;;8.75;2.80;;;;;;;;;;6294621;28;20106;-81
2021/10/21 07:28:02;;;;;;;8.60;3.00;;;;;;;;;;6293338;28;20028;-81
2021/10/21 07:31:02;;;;;;;;;;;13.50;99.90;;;;;;6294685;28;20013;-80
2021/10/21 07:34:03;;;;;;;7.50;3.05;;;;;;;;;;6292976;28;19943;-81
2021/10/21 07:37:04;;;;;;;7.15;2.90;;;;;;;;;;6294730;28;20020;-81
2021/10/21 07:40:05;;;;;;;9.13;2.85;;;13.50;99.90;;;;;;6292369;28;20024;-81
2021/10/21 07:43:09;;;;;;;5.05;2.83;;;13.40;99.90;;;;;;6292694;28;20047;-81
2021/10/21 07:46:09;;;;;;;10.02;2.65;;;13.40;99.90;;;;;;6292418;28;20519;-81
2021/10/21 07:49:10;;;;;;;6.72;2.92;;;13.30;99.90;;;;;;6292564;28;20111;-81
2021/10/21 07:52:11;;;;;;;8.88;3.00;;;13.10;99.90;;;;;;6294001;28;20055;-81
2021/10/21 07:55:11;;;;;;;9.20;2.83;;;13.10;99.90;;;;;;6259359;28;20032;-82
2021/10/21 07:58:12;;;;;;;9.20;2.72;;;13.20;99.90;;;;;;6259256;28;20032;-81
2021/10/21 08:01:13;;;;;;;11.82;2.85;;;13.40;99.90;;;;;;6292732;28;20028;-81
2021/10/21 08:04:14;;;;;;;10.45;2.63;;;13.40;99.90;;;;;;6292116;28;20028;-81
2021/10/21 08:07:15;;;;;;;8.23;2.58;;;13.50;99.90;;;;;;6275618;28;20066;-81
2021/10/21 08:10:17;;;;;;;7.15;2.47;;;13.70;99.90;;;;;;6291589;28;20029;-80
2021/10/21 08:13:17;;;;;;;6.60;2.77;;;13.60;99.90;;;;;;6259108;28;20123;-81
2021/10/21 08:16:18;;;;;;;7.63;3.42;;;13.40;99.90;;;;;;6293454;28;20028;-81
2021/10/21 08:19:18;;;;;;;9.15;3.88;;;13.30;99.90;;;;;;6291807;28;20107;-82
2021/10/21 08:22:19;;;;;;;9.38;2.65;;;14.30;99.90;;;;;;6275282;28;20505;-81
2021/10/21 08:25:20;;;;;;;7.53;2.30;;;;;;;;;;6293295;28;20494;-81
2021/10/21 08:28:21;;;;;;;6.57;2.40;;;15.60;99.90;;;;;;6291252;28;20029;-81
2021/10/21 08:31:22;;;;;;;6.60;2.60;;;;;;;;;;6292844;28;20086;-81
2021/10/21 08:34:23;;;;;;;5.28;2.47;;;15.80;99.90;;;;;;6292056;28;20107;-81
2021/10/21 08:37:23;;;;;;;5.45;2.35;;;16.30;99.90;;;;;;6292792;28;20039;-81
2021/10/21 08:40:24;;;;;;;8.02;2.67;;;16.10;99.90;;;;;;6274885;28;20163;-81
2021/10/21 08:43:24;;;;;;;9.93;2.60;;;16.10;99.90;;;;;;6275040;28;20123;-81
2021/10/21 08:46:26;;;;;;;5.20;2.25;;;16.00;97.50;;;;;;6292562;28;20102;-80
2021/10/21 08:49:26;;;;;;;5.43;2.33;;;16.20;99.90;;;;;;6291580;28;20032;-81
2021/10/21 08:52:27;;;;;;;5.28;2.85;;;;;;;;;;6258004;28;20028;-81
2021/10/21 08:55:28;;;;;;;8.05;2.35;;;15.70;99.90;;;;;;6293300;28;20020;-82
2021/10/21 08:58:29;;;;;;;5.57;1.88;;;15.80;99.50;;;;;;6291326;28;20115;-81
2021/10/21 09:01:39;;;;;;;5.70;2.30;;;16.40;98.60;;;;;;6275008;28;20036;-81
2021/10/21 09:04:56;;;;;;;7.07;2.58;;;16.40;96.60;;;;;;6276375;28;20041;-81
2021/10/21 09:08:06;;;;;;;5.68;2.20;;;18.10;99.90;;;;;;6276960;28;20037;-82
2021/10/21 09:11:07;;;;;;;5.22;2.83;;;18.80;93.60;;;;;;6292232;28;20036;-81
2021/10/21 09:14:10;;;;;;;6.47;2.42;;;18.90;93.40;;;;;;6291403;28;20489;-81
2021/10/21 09:17:11;;;;;;;6.20;2.13;;;20.40;99.80;;;;;;6291101;28;20020;-81
2021/10/21 09:20:37;;;;;;;6.70;2.20;;;20.80;95.10;;;;;;6291453;28;20024;-81
2021/10/21 09:23:38;;;;;;;4.53;2.15;;;21.00;99.60;;;;;;6280254;28;20068;-81
2021/10/21 09:26:58;;;;;;;4.53;2.30;;;21.60;98.80;;;;;;6279240;28;20031;-81
2021/10/21 09:29:59;;;;;;;5.35;2.28;;;21.40;78.00;;;;;;6278982;28;20045;-81
2021/10/21 09:33:07;;;;;;;5.60;2.70;;;19.80;99.90;;;;;;6297423;28;20051;-81
2021/10/21 09:36:07;;;;;;;5.63;3.15;;;19.40;96.60;;;;;;6296868;28;20027;-81
2021/10/21 09:39:08;;;;;;;3.42;2.10;;;20.10;98.20;;;;;;6279131;28;20583;-81
2021/10/21 09:42:09;;;;;;;4.90;2.03;;;20.70;97.90;;;;;;6279184;28;20115;-81
2021/10/21 09:45:17;;;;;;;5.32;2.20;;;20.40;95.20;;;;;;6279146;28;20051;-80
2021/10/21 09:48:18;;;;;;;4.95;2.13;;;20.20;74.50;;;;;;6295792;28;20462;-81
2021/10/21 09:51:34;;;;;;;5.50;2.60;;;20.10;76.80;;;;;;6278928;28;20592;-81
2021/10/21 09:54:35;;;;;;;4.57;1.95;;;;;;;;;;6295216;28;20502;-81
2021/10/21 09:57:36;;;;;;;3.05;1.77;;;20.50;84.40;;;;;;6278323;28;20059;-81
2021/10/21 10:00:41;;;;;;;3.42;1.90;;;20.20;75.20;;;;;;6295292;28;20032;-81
2021/10/21 10:03:42;;;;;;;5.35;2.20;;;20.10;74.30;;;;;;6295150;28;20119;-81
2021/10/21 10:06:42;;;;;;;3.50;1.73;;;19.70;73.90;;;;;;6295178;28;20032;-81
2021/10/21 10:09:43;;;;;;;4.68;2.10;;;19.70;74.70;;;;;;6296877;28;20067;-80
2021/10/21 10:12:44;;;;;;;5.38;2.33;;;19.70;72.90;;;;;;6296287;28;20379;-81
2021/10/21 10:15:45;;;;;;;6.07;2.22;;;19.90;74.50;;;;;;6278133;28;20028;-81
2021/10/21 10:18:47;;;;;;;4.20;2.03;;;20.20;73.40;;;;;;6278672;28;20050;-81
2021/10/21 10:21:51;;;;;;;6.13;2.10;;;20.60;74.30;;;;;;6278280;28;20041;-81
2021/10/21 10:24:53;;;;;;;3.75;2.00;;;20.90;86.00;;;;;;6278574;28;20101;-81
2021/10/21 10:27:57;;;;;;;4.65;1.90;;;20.70;69.90;;;;;;6294695;28;20028;-82
2021/10/21 10:30:58;;;;;;;3.08;1.95;;;20.40;67.30;;;;;;6294855;28;20367;-81
2021/10/21 10:33:58;;;;;;;4.45;2.30;;;20.10;73.70;;;;;;6277448;28;20044;-81
2021/10/21 10:37:17;;;;;;;4.38;2.05;;;19.80;71.50;;;;;;6277721;28;20032;-81
2021/10/21 10:40:46;;;;;;;6.88;2.10;;;20.10;69.80;;;;;;6295910;28;20036;-81
2021/10/21 10:43:47;;;;;;;4.57;2.03;;;20.10;72.80;;;;;;6262761;28;20060;-81
2021/10/21 10:46:49;;;;;;;4.82;2.15;;;19.70;74.40;;;;;;6277331;28;20048;-81
2021/10/21 10:49:50;;;;;;;4.97;2.15;;;19.50;74.50;;;;;;6277847;28;20029;-81
2021/10/21 10:53:01;;;;;;;3.50;2.20;;;19.80;76.40;;;;;;6277466;28;20029;-81
2021/10/21 10:56:01;;;;;;;3.30;2.08;;;19.30;76.90;;;;;;6278899;28;20043;-81
2021/10/21 10:59:15;;;;;;;6.45;2.10;;;18.50;80.60;;;;;;6276894;28;20033;-81
2021/10/21 11:02:25;;;;;;;4.32;2.85;;;18.70;81.10;;;;;;6277152;28;20364;-81
2021/10/21 11:05:52;;;;;;;5.13;2.33;;;18.60;78.40;;;;;;6295134;28;20153;-81
2021/10/21 11:09:06;;;;;;;5.53;2.15;;;18.70;76.70;;;;;;6266143;28;20631;-81
2021/10/21 11:12:11;;;;;;;3.58;2.13;;;18.90;78.70;;;;;;6278147;28;20033;-81
2021/10/21 11:15:31;;;;;;;5.38;2.28;;;19.20;77.10;;;;;;6261462;28;20495;-81
2021/10/21 11:18:32;;;;;;;3.15;2.03;;;18.80;87.70;;;;;;6294812;28;20458;-81
2021/10/21 11:21:45;;;;;;;4.32;2.00;;;18.80;76.70;;;;;;6293577;28;20028;-81
2021/10/21 11:24:49;;;;;;;4.25;1.98;;;19.30;89.30;;;;;;6293530;28;20036;-81
2021/10/21 11:27:52;;;;;;;5.72;2.20;;;19.30;85.80;;;;;;6294455;28;20068;-84
2021/10/21 11:30:53;;;;;;;5.95;2.72;;;18.80;75.60;;;;;;6276474;28;20112;-81
2021/10/21 11:33:53;;;;;;;4.30;2.05;;;18.70;76.10;;;;;;6293898;28;20442;-80
2021/10/21 11:36:54;;;;;;;7.00;2.72;;;18.60;76.50;;;;;;6292884;28;20071;-80
2021/10/21 11:39:54;;;;;;;2.83;2.08;;;19.10;92.30;;;;;;6293671;28;20028;-80
2021/10/21 11:43:23;;;;;;;4.65;2.20;;;18.70;78.50;;;;;;6292670;28;20430;-80
2021/10/21 11:46:23;;;;;;;6.95;2.63;;;18.70;78.40;;;;;;6292090;28;20052;-82
2021/10/21 11:49:28;;;;;;;8.23;2.40;;;18.20;77.40;;;;;;6292124;28;20132;-81
2021/10/21 11:52:42;;;;;;;5.00;1.92;;;17.50;77.40;;;;;;6292219;28;20028;-81
2021/10/21 11:55:46;;;;;;;4.15;1.98;;;17.20;80.70;;;;;;6292618;28;20093;-81
2021/10/21 11:58:46;;;;;;;8.02;2.28;;;16.70;82.00;;;;;;6292211;28;20025;-87
2021/10/21 12:01:47;;;;;;;9.55;2.58;;;16.90;84.10;;;;;;6258679;28;20043;-83
2021/10/21 12:04:47;;;;;;;6.20;2.25;;;16.40;84.10;;;;;;6258975;28;20076;-83
2021/10/21 12:07:51;;;;;;;7.70;2.75;;;16.20;85.80;;;;;;6275737;28;20067;-85
2021/10/21 12:11:00;;;;;;;7.40;2.50;;;16.50;96.80;;;;;;6275955;28;20024;-84
2021/10/21 12:14:01;;;;;;;7.55;2.40;;;16.30;88.40;;;;;;6278247;28;20039;-83
2021/10/21 12:17:03;;;;;;;13.27;2.75;;;16.70;87.50;;;;;;6275572;28;20021;-87
2021/10/21 12:20:04;;;;;;;6.90;2.22;;;16.80;85.80;;;;;;6275316;28;20020;-84
2021/10/21 12:23:23;;;;;;;7.28;2.53;;;17.00;85.50;;;;;;6275429;28;20032;-86
2021/10/21 12:26:30;;;;;;;5.65;2.28;;;17.10;82.10;;;;;;6292015;28;20068;-85
2021/10/21 12:29:42;;;;;;;5.55;2.45;;;17.10;83.30;;;;;;6259734;28;20041;-82
2021/10/21 12:32:42;;;;;;;3.72;2.28;;;16.90;83.80;;;;;;6261667;28;20024;-85
2021/10/21 12:36:02;;;;;;;7.80;2.55;;;17.00;86.00;;;;;;6275060;28;20078;-83
2021/10/21 12:39:04;;;;;;;8.38;2.10;;;16.90;84.20;;;;;;6275772;28;20048;-84
2021/10/21 12:42:07;;;;;;;11.05;2.80;;;16.60;82.40;;;;;;6275602;28;20437;-83
2021/10/21 12:45:09;;;;;;;5.45;2.80;;;16.40;84.70;;;;;;6275598;28;20060;-86
2021/10/21 12:48:26;;;;;;;7.50;2.63;;;16.20;86.70;;;;;;6275272;28;20052;-84
2021/10/21 12:51:32;;;;;;;9.63;2.60;;;16.00;84.30;;;;;;6259459;28;20517;-84
2021/10/21 12:54:35;;;;;;;9.90;2.67;;;15.70;99.90;;;;;;6258498;28;20029;-83
2021/10/21 12:58:09;;;;;;;7.90;2.92;;;15.70;92.10;;;;;;6275482;28;20029;-84
2021/10/21 13:01:10;;;;;;;4.80;1.85;;;15.90;91.40;;;;;;6277473;28;20386;-82
2021/10/21 13:04:10;;;;;;;5.35;2.25;;;16.10;91.30;;;;;;6291673;28;20032;-88
2021/10/21 13:07:19;;;;;;;6.57;2.90;;;16.30;91.00;;;;;;6291751;28;20075;-86
2021/10/21 13:10:19;;;;;;;8.77;2.55;;;16.30;90.60;;;;;;6274820;28;20641;-85
2021/10/21 13:13:21;;;;;;;9.98;2.78;;;16.20;89.70;;;;;;6275132;28;20025;-84
2021/10/21 13:16:21;;;;;;;7.65;2.63;;;16.20;90.50;;;;;;6291328;28;20052;-85
2021/10/21 13:19:22;;;;;;;7.70;3.28;;;16.10;89.50;;;;;;6275328;28;20032;-84
2021/10/21 13:22:23;;;;;;;8.40;2.67;;;16.10;90.40;;;;;;6275186;28;20032;-83
2021/10/21 13:25:23;;;;;;;12.65;3.03;;;16.10;90.40;;;;;;6291308;28;20397;-84
2021/10/21 13:28:24;;;;;;;6.95;2.22;;;16.20;97.40;;;;;;6274739;28;20378;-83
2021/10/21 13:31:24;;;;;;;9.57;3.13;;;16.20;90.10;;;;;;6274429;28;20429;-85
2021/10/21 13:34:25;;;;;;;9.50;3.22;;;16.30;91.50;;;;;;6274675;28;20037;-83
2021/10/21 13:37:26;;;;;;;7.43;2.45;;;16.20;90.10;;;;;;6258524;28;20025;-84
2021/10/21 13:40:27;;;;;;;6.70;2.20;;;16.00;89.40;;;;;;6257727;28;20086;-84
2021/10/21 13:43:27;;;;;;;7.03;2.35;;;16.00;96.10;;;;;;6274669;28;20463;-86
2021/10/21 13:46:28;;;;;;;6.75;2.80;;;16.00;96.50;;;;;;6290756;28;20441;-85
2021/10/21 13:49:29;;;;;;;7.07;2.63;;;16.00;87.50;;;;;;6289719;28;20055;-85
2021/10/21 13:52:29;;;;;;;4.55;2.22;;;16.00;86.30;;;;;;6274097;28;20028;-84
2021/10/21 13:55:30;;;;;;;7.20;2.35;;;16.10;86.60;;;;;;6289235;28;20082;-84
2021/10/21 13:58:31;;;;;;;5.15;2.35;;;16.00;83.50;;;;;;6273668;28;20036;-82
2021/10/21 14:01:33;;;;;;;7.10;2.15;;;;;;;;;;6273650;28;20028;-82
2021/10/21 14:04:34;;;;;;;6.88;2.50;;;16.20;80.90;;;;;;6289987;28;20525;-83
2021/10/21 14:07:34;;;;;;;4.03;2.35;;;16.10;83.40;;;;;;6273354;28;20040;-83
2021/10/21 14:10:35;;;;;;;3.58;2.00;;;16.10;82.60;;;;;;6275190;28;20105;-82
2021/10/21 14:13:36;;;;;;;13.90;3.17;;;16.00;81.50;;;;;;6276921;28;20032;-83
2021/10/21 14:16:36;;;;;;;3.28;1.98;;;15.90;82.10;;;;;;6278690;28;20036;-84
2021/10/21 14:19:37;;;;;;;4.20;2.50;;;15.80;82.10;;;;;;6277994;28;20071;-82
2021/10/21 14:22:38;;;;;;;5.70;2.38;;;15.90;82.70;;;;;;6278840;28;20462;-81
2021/10/21 14:25:39;;;;;;;4.53;2.05;;;15.70;81.30;;;;;;6277972;28;20116;-81
2021/10/21 14:28:40;;;;;;;5.30;2.73;;;15.60;94.90;;;;;;6278413;28;20476;-82
2021/10/21 14:31:41;;;;;;;5.28;2.50;;;15.60;84.50;;;;;;6277757;28;20027;-81
2021/10/21 14:34:42;;;;;;;5.50;2.35;;;15.40;81.00;;;;;;6278042;28;20521;-82
2021/10/21 14:37:43;;;;;;;8.90;2.53;;;15.20;91.30;;;;;;6294607;28;20056;-81
2021/10/21 14:40:45;;;;;;;3.23;2.10;;;14.90;93.90;;;;;;6261252;28;20029;-83
2021/10/21 14:43:45;;;;;;;6.37;2.53;;;15.40;99.90;;;;;;6276385;28;20536;-81
2021/10/21 14:46:46;;;;;;;4.95;2.10;;;15.50;94.60;;;;;;6276295;28;20056;-81
2021/10/21 14:49:46;;;;;;;6.80;2.20;;;15.60;99.90;;;;;;6276733;28;20091;-82
2021/10/21 14:52:47;;;;;;;5.93;2.30;;;15.40;99.90;;;;;;6276622;28;20378;-82
2021/10/21 14:55:47;;;;;;;8.52;2.00;;;15.50;96.10;;;;;;6293868;28;20142;-81
2021/10/21 14:58:48;;;;;;;3.17;2.08;;;;;;;;;;6293407;28;20036;-82
2021/10/21 15:01:49;;;;;;;7.75;2.92;;;15.60;95.80;;;;;;6292980;28;20024;-81
2021/10/21 15:04:50;;;;;;;4.13;1.92;;;;;;;;;;6277097;28;20079;-81
2021/10/21 15:07:58;;;;;;;8.70;2.50;;;;;;;;;;6294135;28;20063;-81
2021/10/21 15:23:56;;;;;;;7.13;2.83;;;14.80;83.30;;;;;;6278911;28;20028;-82
2021/10/21 15:26:56;;;;;;;6.15;2.25;;;14.70;95.60;;;;;;6276205;28;20031;-82
2021/10/21 15:29:57;;;;;;;5.93;2.00;;;14.60;85.20;;;;;;6259800;28;20420;-83
2021/10/21 15:32:58;;;;;;;4.85;2.55;;;;;;;;;;6259512;28;20032;-85
2021/10/21 15:35:59;;;;;;;6.85;2.42;;;14.10;98.00;;;;;;6292887;28;20116;-84
2021/10/21 15:39:02;;;;;;;5.28;2.13;;;14.10;98.70;;;;;;6275887;28;20028;-83
2021/10/21 15:42:03;;;;;;;6.05;2.58;;;14.00;95.50;;;;;;6260106;28;20123;-84
2021/10/21 15:45:37;;;;;;;6.22;2.45;;;13.80;90.80;;;;;;6275412;28;20057;-82
2021/10/21 15:48:54;;;;;;;6.82;2.40;;;;;;;;;;6292298;28;20032;-81
2021/10/21 16:15:00;;;;;;;6.75;1.98;;;13.50;91.40;;;;;;6275175;28;20070;-80
2021/10/21 16:18:02;;;;;;;5.32;2.00;;;13.80;97.30;;;;;;6289425;28;20024;-77
2021/10/21 16:21:05;;;;;;;6.80;2.35;;;13.50;89.00;;;;;;6274158;28;20028;-79
2021/10/21 16:24:10;;;;;;;9.65;2.30;;;13.50;90.60;;;;;;6275068;28;20033;-81
2021/10/21 16:27:23;;;;;;;7.47;2.40;;;13.70;92.50;;;;;;6274475;28;20048;-79
2021/10/21 16:30:23;;;;;;;3.15;1.65;;;13.70;89.30;;;;;;6292266;28;20025;-79
2021/10/21 16:33:24;;;;;;;4.45;2.28;;;13.50;89.80;;;;;;6291714;28;20048;-79
2021/10/21 16:36:25;;;;;;;3.47;2.05;;;13.50;90.10;;;;;;6291889;28;20031;-78
2021/10/21 16:39:26;;;;;;;4.45;1.92;;;13.40;90.00;;;;;;6292616;28;20025;-78
2021/10/21 16:42:26;;;;;;;4.78;2.25;;;13.30;90.50;;;;;;6291532;28;20083;-78
2021/10/21 16:45:28;;;;;;;4.68;2.22;;;13.40;97.50;;;;;;6291024;28;20071;-80